Accueil
METAR-TAF:

METAR-TAF

Aéroports :

Aéroport de Saint-Sébastien

Saint-Sébastien, Espagne

latitude: 43-21N, longitude: 001-48W, altitude: 5 m

Observation

Le bulletin a été fait il y a 17 minutes, à 21:30 UTC
Vent 3 kt de ouest/sud-ouest, variant entre sud/sud-ouest et ouest
Température 11°C
Humidité 94%
Pression 1011 hPa
Visibilité: 7000 m

METAR: LESO 172130Z AUTO 24003KT 210V270 7000 NCD 11/10 Q1011

Heure: 22:47 (21:47 UTC)

Prévision

Le bulletin a été fait il y a 4 heures et 47 minutes, à 17:00 UTC
Prévision valable du 17 à 18 UTC au 18 à 18 UTC
Vent 9 kt de sud/sud-est
Visibilité 10 km ou plus
pas de nuages en-dessous de 1500 mètres et pas de cumulonimbus.
Probabilité 40% :
Temporairement
du 18 à 06 UTC au 18 à 18 UTC
Vent 10 kt de est
Nuages épars à une hauteur de 2500 ft, Cumulus congestus.
averses de pluie, pluie

TAF: LESO 171700Z 1718/1818 15009KT CAVOK TX16/1813Z TN09/1806Z PROB40 TEMPO 1806/1818 09010KT SHRA RA SCT025TCU

Observations et prévisions météorologiques de plus de 4000 aéroports (messages METAR et TAF).

Les stations disponibles sont représentées par des disques jaunes et rouges sur la carte.

Passer la souris dessus pour voir le nom de la station.

Cliquer dessus pour voir les observations et prévisions météorologiques.

Pour changer de carte: cliquez sur les boutons verts avec une croix noire pour zoomer, sur le bouton vert avec un tiret pour effectuer un zoom arrière, ou sur les flèches vertes pour les cartes adjacentes.


METAR-TAF: